Time;durP1;ratioP1;P1;durP2;ratioP2;P2;SDS_P1;SDS_P2;PMS_P1;PMS_P2;Temp;Humidity;BMP_temperature;BMP_pressure;BME280_temperature;BME280_humidity;BME280_pressure;Samples;Min_cycle;Max_cycle;Signal;HPM_P1;HPM_P2
2022/10/07 00:00:16;;;;;;;176.90;170.90;;;7.60;99.90;;;;;;4985371;28;21044;-84
2022/10/07 00:02:42;;;;;;;314.77;304.17;;;7.40;99.90;;;;;;4986075;28;20455;-84
2022/10/07 00:05:09;;;;;;;424.13;409.17;;;7.40;99.90;;;;;;4985949;28;20454;-84
2022/10/07 00:07:37;;;;;;;478.77;460.97;;;7.50;99.90;;;;;;4987750;28;20461;-84
2022/10/07 00:10:05;;;;;;;497.93;478.77;;;7.60;99.90;;;;;;4989787;28;20489;-84
2022/10/07 00:12:32;;;;;;;504.03;483.37;;;7.70;99.90;;;;;;4989145;28;20455;-84
2022/10/07 00:14:59;;;;;;;471.50;452.83;;;7.70;99.90;;;;;;4988544;28;20451;-83
2022/10/07 00:17:25;;;;;;;398.87;383.77;;;7.50;99.90;;;;;;4989326;28;20493;-83
2022/10/07 00:19:52;;;;;;;368.63;355.37;;;7.40;99.90;;;;;;4988541;28;20475;-84
2022/10/07 00:22:19;;;;;;;411.23;396.33;;;7.30;99.90;;;;;;4989772;28;20462;-83
2022/10/07 00:24:47;;;;;;;429.23;414.03;;;7.20;99.90;;;;;;4988822;28;20458;-83
2022/10/07 00:27:14;;;;;;;553.63;531.63;;;7.20;99.90;;;;;;4988743;28;20523;-84
2022/10/07 00:29:40;;;;;;;602.77;577.07;;;7.20;99.90;;;;;;4989047;28;20497;-84
2022/10/07 00:32:07;;;;;;;667.20;637.57;;;7.20;99.90;;;;;;4989095;28;20454;-84
2022/10/07 00:34:34;;;;;;;604.63;578.60;;;7.00;99.90;;;;;;4988490;28;20458;-84
2022/10/07 00:37:01;;;;;;;634.67;607.83;;;6.90;99.90;;;;;;4988984;28;20463;-84
2022/10/07 00:39:27;;;;;;;638.50;610.77;;;6.90;99.90;;;;;;4988597;28;20478;-84
2022/10/07 00:41:56;;;;;;;704.97;673.27;;;6.80;99.90;;;;;;4988804;28;20463;-84
2022/10/07 00:44:41;;;;;;;721.27;687.77;;;6.70;99.90;;;;;;4988338;28;20466;-82
2022/10/07 00:47:19;;;;;;;825.83;782.00;;;6.50;99.90;;;;;;4988877;28;20968;-85
2022/10/07 00:49:49;;;;;;;859.20;810.70;;;6.50;99.90;;;;;;4988684;28;20493;-83
2022/10/07 00:52:19;;;;;;;870.93;820.70;;;6.50;99.90;;;;;;4988702;28;20465;-85
2022/10/07 00:54:47;;;;;;;888.87;836.30;;;6.40;99.90;;;;;;4988010;28;20486;-83
2022/10/07 00:57:15;;;;;;;879.83;828.40;;;6.50;99.90;;;;;;4988418;28;20459;-86
2022/10/07 00:59:42;;;;;;;862.90;813.67;;;6.40;99.90;;;;;;4988857;28;20478;-85
2022/10/07 01:02:09;;;;;;;885.37;833.37;;;6.40;99.90;;;;;;4988011;28;20459;-83
2022/10/07 01:04:36;;;;;;;885.93;832.90;;;6.50;99.90;;;;;;4988102;28;20451;-84
2022/10/07 01:07:03;;;;;;;895.23;840.93;;;6.50;99.90;;;;;;4987155;28;20454;-83
2022/10/07 01:09:30;;;;;;;881.30;829.60;;;6.50;99.90;;;;;;4987771;28;20494;-84
2022/10/07 01:12:00;;;;;;;852.73;803.20;;;6.50;99.90;;;;;;4987756;28;20447;-85
2022/10/07 01:14:42;;;;;;;835.47;788.33;;;6.50;99.90;;;;;;4987642;28;20455;-83
2022/10/07 01:17:14;;;;;;;836.60;790.07;;;6.50;99.90;;;;;;4987874;28;20833;-84
2022/10/07 01:20:06;;;;;;;869.50;820.27;;;6.50;99.90;;;;;;4987651;28;20474;-83
2022/10/07 01:22:41;;;;;;;890.13;837.70;;;6.40;99.90;;;;;;4981394;28;20466;-84
2022/10/07 01:25:25;;;;;;;888.60;836.00;;;6.40;99.90;;;;;;4988170;28;20443;-83
2022/10/07 01:27:56;;;;;;;898.00;845.10;;;6.40;99.90;;;;;;4988076;28;20539;-83
2022/10/07 01:30:22;;;;;;;898.17;844.37;;;6.30;99.90;;;;;;4988147;28;20482;-84
2022/10/07 01:32:58;;;;;;;899.07;845.13;;;6.40;99.90;;;;;;4987722;28;20459;-84
2022/10/07 01:35:28;;;;;;;904.03;849.80;;;6.30;99.90;;;;;;4988195;28;20469;-83
2022/10/07 01:37:59;;;;;;;914.87;857.70;;;6.30;99.90;;;;;;4987412;28;20451;-84
2022/10/07 01:40:31;;;;;;;913.37;856.30;;;6.50;99.90;;;;;;4987507;28;20482;-83
2022/10/07 01:43:00;;;;;;;890.80;838.90;;;6.40;99.90;;;;;;4987844;28;20474;-85
2022/10/07 01:45:34;;;;;;;877.70;827.50;;;6.40;99.90;;;;;;4987456;28;20466;-84
2022/10/07 01:48:01;;;;;;;894.40;843.07;;;6.40;99.90;;;;;;4987399;28;20455;-84
2022/10/07 01:50:30;;;;;;;895.60;843.20;;;6.30;99.90;;;;;;4987156;28;20501;-83
2022/10/07 01:53:11;;;;;;;903.47;849.87;;;6.40;99.90;;;;;;4987300;28;20451;-83
2022/10/07 01:56:00;;;;;;;907.23;854.53;;;6.40;99.90;;;;;;4986904;28;20458;-83
2022/10/07 01:58:43;;;;;;;923.20;866.40;;;6.40;99.90;;;;;;4987862;28;20565;-84
2022/10/07 02:01:18;;;;;;;912.33;856.60;;;6.40;99.90;;;;;;4987642;28;20470;-84
2022/10/07 02:04:06;;;;;;;907.30;852.00;;;6.40;99.90;;;;;;4987394;28;20517;-84
2022/10/07 02:06:42;;;;;;;898.07;843.63;;;6.40;99.90;;;;;;4986282;28;20455;-82
2022/10/07 02:09:28;;;;;;;908.47;854.33;;;6.30;99.90;;;;;;4986125;28;20493;-84
2022/10/07 02:12:01;;;;;;;916.27;860.73;;;6.20;99.90;;;;;;4988820;28;20455;-83
2022/10/07 02:14:37;;;;;;;902.67;847.90;;;6.30;99.90;;;;;;4987243;28;20463;-83
2022/10/07 02:17:10;;;;;;;907.17;850.20;;;6.30;99.90;;;;;;4987217;28;20455;-84
2022/10/07 02:19:43;;;;;;;908.57;851.40;;;6.30;99.90;;;;;;4986774;28;20983;-83
2022/10/07 02:22:13;;;;;;;916.30;858.53;;;6.20;99.90;;;;;;4985935;28;20463;-83
2022/10/07 02:24:42;;;;;;;916.97;859.80;;;6.20;99.90;;;;;;4986418;28;20906;-84
2022/10/07 02:27:13;;;;;;;912.73;855.80;;;6.20;99.90;;;;;;4986422;28;20466;-84
2022/10/07 02:29:43;;;;;;;914.53;856.13;;;6.30;99.90;;;;;;4986447;28;20497;-84
2022/10/07 02:32:12;;;;;;;922.43;863.50;;;6.20;99.90;;;;;;4986667;28;20551;-84
2022/10/07 02:34:42;;;;;;;926.40;867.37;;;6.20;99.90;;;;;;4985850;28;20454;-84
2022/10/07 02:37:14;;;;;;;933.93;873.90;;;6.10;99.90;;;;;;4986411;28;20451;-84
2022/10/07 02:39:42;;;;;;;921.30;861.70;;;6.10;99.90;;;;;;4986092;28;20870;-84
2022/10/07 02:42:17;;;;;;;923.37;864.57;;;6.10;99.90;;;;;;4985039;28;20978;-84
2022/10/07 02:44:50;;;;;;;931.60;870.97;;;5.90;99.90;;;;;;4985834;28;20461;-84
2022/10/07 02:47:21;;;;;;;941.60;879.60;;;5.90;99.90;;;;;;4985594;28;20459;-84
2022/10/07 02:49:52;;;;;;;937.50;876.00;;;5.80;99.90;;;;;;4986321;28;20508;-84
2022/10/07 02:52:20;;;;;;;944.57;883.60;;;5.80;99.90;;;;;;4985500;28;20847;-84
2022/10/07 02:54:51;;;;;;;944.00;881.93;;;5.80;99.90;;;;;;4985233;28;20952;-83
2022/10/07 02:57:19;;;;;;;939.80;876.10;;;5.70;99.90;;;;;;4985063;28;20477;-84
2022/10/07 02:59:50;;;;;;;932.13;868.13;;;5.70;99.90;;;;;;4984552;28;20481;-84
2022/10/07 03:02:22;;;;;;;934.30;870.70;;;5.80;99.90;;;;;;4984975;28;20461;-84
2022/10/07 03:04:49;;;;;;;935.97;872.47;;;5.80;99.90;;;;;;4984466;28;20465;-83
2022/10/07 03:07:16;;;;;;;941.33;877.43;;;5.70;99.90;;;;;;4983305;28;20964;-83
2022/10/07 03:09:43;;;;;;;939.83;875.93;;;5.70;99.90;;;;;;4984128;28;20490;-83
2022/10/07 03:12:09;;;;;;;944.00;879.63;;;5.60;99.90;;;;;;4986006;28;20465;-83
2022/10/07 03:14:38;;;;;;;939.97;873.07;;;5.70;99.90;;;;;;4983289;28;20455;-83
2022/10/07 03:17:06;;;;;;;939.27;872.47;;;5.70;99.90;;;;;;4983848;28;20474;-84
2022/10/07 03:19:33;;;;;;;933.27;867.10;;;5.60;99.90;;;;;;4985567;28;20471;-83
2022/10/07 03:22:01;;;;;;;931.33;865.57;;;5.60;99.90;;;;;;4981590;28;20462;-84
2022/10/07 03:24:27;;;;;;;930.20;864.27;;;5.60;99.90;;;;;;4981135;28;20469;-83
2022/10/07 03:26:55;;;;;;;942.07;874.57;;;5.60;99.90;;;;;;4984444;28;20455;-83
2022/10/07 03:29:24;;;;;;;929.90;863.80;;;5.60;99.90;;;;;;4983849;28;20487;-84
2022/10/07 03:31:54;;;;;;;941.47;874.83;;;5.50;99.90;;;;;;4985133;28;20447;-84
2022/10/07 03:34:22;;;;;;;938.57;871.93;;;5.50;99.90;;;;;;4983923;28;20459;-84
2022/10/07 03:36:49;;;;;;;937.63;869.97;;;5.50;99.90;;;;;;4984145;28;20505;-84
2022/10/07 03:39:15;;;;;;;934.33;867.93;;;5.50;99.90;;;;;;4983018;28;20856;-84
2022/10/07 03:41:42;;;;;;;935.53;868.13;;;5.50;99.90;;;;;;4983101;28;20455;-84
2022/10/07 03:44:09;;;;;;;949.97;881.80;;;5.40;99.90;;;;;;4984510;28;20458;-84
2022/10/07 03:46:35;;;;;;;943.20;875.07;;;5.50;99.90;;;;;;4984130;28;20462;-84
2022/10/07 03:49:03;;;;;;;939.70;872.10;;;5.40;99.90;;;;;;4984486;28;20559;-84
2022/10/07 03:51:31;;;;;;;952.47;883.57;;;5.40;99.90;;;;;;4982248;28;20487;-85
2022/10/07 03:53:58;;;;;;;947.20;877.23;;;5.50;99.90;;;;;;4981642;28;20953;-85
2022/10/07 03:56:25;;;;;;;949.17;877.97;;;5.50;99.90;;;;;;4982291;28;20983;-84
2022/10/07 03:58:52;;;;;;;959.00;887.63;;;5.50;99.90;;;;;;4982711;28;20475;-85
2022/10/07 04:01:18;;;;;;;958.17;887.37;;;5.60;99.90;;;;;;4982284;28;20459;-85
2022/10/07 04:03:46;;;;;;;950.27;879.60;;;5.60;99.90;;;;;;4982479;28;20455;-84
2022/10/07 04:06:13;;;;;;;949.27;878.87;;;5.60;99.90;;;;;;4983526;28;20459;-84
2022/10/07 04:08:42;;;;;;;961.03;889.43;;;5.60;99.90;;;;;;4982581;28;20529;-85
2022/10/07 04:11:09;;;;;;;951.83;877.20;;;5.50;99.90;;;;;;4982161;28;21033;-85
2022/10/07 04:13:36;;;;;;;955.70;881.00;;;5.50;99.90;;;;;;4981963;28;20462;-83
2022/10/07 04:16:07;;;;;;;967.30;891.50;;;5.50;99.90;;;;;;4983741;28;20462;-85
2022/10/07 04:18:33;;;;;;;962.63;885.93;;;5.50;99.90;;;;;;4982926;28;20475;-84
2022/10/07 04:21:01;;;;;;;955.27;878.30;;;5.60;99.90;;;;;;4983536;28;20451;-84
2022/10/07 04:23:28;;;;;;;948.63;873.03;;;5.70;99.90;;;;;;4983359;28;20888;-84
2022/10/07 04:25:56;;;;;;;954.13;876.63;;;5.60;99.90;;;;;;4981786;28;20458;-85
2022/10/07 04:28:25;;;;;;;959.63;882.23;;;5.60;99.90;;;;;;4982715;28;20479;-85
2022/10/07 04:30:52;;;;;;;962.80;885.30;;;5.60;99.90;;;;;;4982229;28;20478;-85
2022/10/07 04:33:20;;;;;;;948.83;873.33;;;5.60;99.90;;;;;;4983165;28;20447;-84
2022/10/07 04:35:49;;;;;;;944.60;869.67;;;5.50;99.90;;;;;;4982105;28;20462;-85
2022/10/07 04:38:17;;;;;;;927.60;852.73;;;5.60;99.90;;;;;;4981822;28;20482;-85
2022/10/07 04:40:46;;;;;;;938.97;863.30;;;5.60;99.90;;;;;;4983265;28;20455;-84
2022/10/07 04:43:22;;;;;;;939.17;862.10;;;5.60;99.90;;;;;;4984691;28;21019;-85
2022/10/07 04:45:51;;;;;;;947.37;869.80;;;5.60;99.90;;;;;;4983564;28;20481;-84
2022/10/07 04:48:19;;;;;;;958.50;879.90;;;5.40;99.90;;;;;;4980471;28;20498;-84
2022/10/07 04:50:47;;;;;;;949.73;872.43;;;5.40;99.90;;;;;;4982026;28;20521;-86
2022/10/07 04:53:16;;;;;;;950.53;872.33;;;5.40;99.90;;;;;;4983757;28;20461;-85
2022/10/07 04:55:45;;;;;;;951.27;873.27;;;5.40;99.90;;;;;;4985536;28;20461;-84
2022/10/07 04:58:12;;;;;;;949.13;871.03;;;5.40;99.90;;;;;;4985636;28;20530;-85
2022/10/07 05:00:45;;;;;;;899.60;822.20;;;5.40;99.90;;;;;;4985197;28;20451;-85
2022/10/07 05:03:12;;;;;;;895.60;818.30;;;5.40;99.90;;;;;;4984472;28;20455;-84
2022/10/07 05:05:43;;;;;;;912.30;834.90;;;5.40;99.90;;;;;;4983855;28;20468;-85
2022/10/07 05:08:10;;;;;;;913.20;834.83;;;5.40;99.90;;;;;;4983767;28;20479;-83
2022/10/07 05:10:38;;;;;;;894.73;817.53;;;5.40;99.90;;;;;;4984871;28;20488;-84
2022/10/07 05:13:05;;;;;;;892.10;813.90;;;5.40;99.90;;;;;;4984007;28;20794;-83
2022/10/07 05:15:32;;;;;;;886.50;808.70;;;5.40;99.90;;;;;;4984685;28;20865;-84
2022/10/07 05:18:01;;;;;;;889.87;812.23;;;5.60;99.90;;;;;;4984564;28;20454;-83
2022/10/07 05:20:28;;;;;;;889.80;812.13;;;5.50;99.90;;;;;;4986256;28;20450;-84
2022/10/07 05:22:54;;;;;;;879.43;801.33;;;5.50;99.90;;;;;;4986458;28;20841;-84
2022/10/07 05:25:21;;;;;;;891.20;813.53;;;5.60;99.90;;;;;;4986004;28;20469;-84
2022/10/07 05:27:52;;;;;;;897.70;820.83;;;5.50;99.90;;;;;;4986374;28;20575;-84
2022/10/07 05:30:19;;;;;;;899.50;822.23;;;5.40;99.90;;;;;;4985274;28;20502;-84
2022/10/07 05:32:46;;;;;;;903.93;825.87;;;5.40;99.90;;;;;;4986319;28;20535;-84
2022/10/07 05:35:14;;;;;;;901.80;824.30;;;5.40;99.90;;;;;;4983679;28;20459;-84
2022/10/07 05:37:41;;;;;;;909.70;832.10;;;5.40;99.90;;;;;;4984056;28;20462;-83
2022/10/07 05:40:10;;;;;;;903.80;825.50;;;5.30;99.90;;;;;;4983724;28;20482;-84
2022/10/07 05:42:36;;;;;;;905.60;826.93;;;5.40;99.90;;;;;;4983914;28;20837;-84
2022/10/07 05:45:04;;;;;;;897.90;820.20;;;5.40;99.90;;;;;;4982373;28;20450;-84
2022/10/07 05:47:32;;;;;;;893.67;814.90;;;5.40;99.90;;;;;;4983685;28;20455;-84
2022/10/07 05:49:59;;;;;;;894.50;816.63;;;5.40;99.90;;;;;;4983792;28;20505;-85
2022/10/07 05:52:27;;;;;;;901.13;822.33;;;5.40;99.90;;;;;;4983611;28;20455;-84
2022/10/07 05:54:53;;;;;;;894.03;813.60;;;5.30;99.90;;;;;;4982563;28;20459;-84
2022/10/07 05:57:21;;;;;;;887.83;809.13;;;5.40;99.90;;;;;;4982682;28;20451;-83
2022/10/07 05:59:48;;;;;;;885.43;806.07;;;5.50;99.90;;;;;;4992240;28;20475;-84
2022/10/07 06:02:17;;;;;;;892.90;813.27;;;5.50;99.90;;;;;;4995408;28;20447;-83
2022/10/07 06:04:44;;;;;;;888.43;809.67;;;5.60;99.90;;;;;;4991684;28;20541;-83
2022/10/07 06:07:11;;;;;;;888.53;809.40;;;5.60;99.90;;;;;;4993534;28;20443;-85
2022/10/07 06:15:09;;;;;;;891.40;813.27;;;5.90;99.90;;;;;;4978129;28;20438;-84
2022/10/07 06:17:41;;;;;;;891.30;812.20;;;5.80;99.90;;;;;;4980788;28;20887;-84
2022/10/07 06:20:08;;;;;;;887.10;809.50;;;5.90;99.90;;;;;;4979681;28;20475;-84
2022/10/07 06:22:35;;;;;;;891.50;812.87;;;5.90;99.90;;;;;;4979462;28;20459;-85
2022/10/07 06:25:03;;;;;;;895.10;815.90;;;6.00;99.90;;;;;;4979127;28;20447;-84
2022/10/07 06:27:37;;;;;;;883.30;805.33;;;6.10;99.90;;;;;;4979200;28;20458;-84
2022/10/07 06:30:05;;;;;;;891.10;813.50;;;6.20;99.90;;;;;;4978653;28;20475;-85
2022/10/07 06:32:31;;;;;;;900.40;822.90;;;6.30;99.90;;;;;;4980101;28;20454;-84
2022/10/07 06:34:58;;;;;;;900.97;823.27;;;6.40;99.90;;;;;;4977557;28;21006;-84
2022/10/07 06:37:25;;;;;;;906.03;828.40;;;6.40;99.90;;;;;;4980121;28;20470;-84
2022/10/07 06:39:52;;;;;;;896.60;819.47;;;6.60;99.90;;;;;;4980378;28;20479;-83
2022/10/07 06:42:20;;;;;;;899.93;823.27;;;6.60;99.90;;;;;;4978177;28;20462;-83
2022/10/07 06:44:46;;;;;;;900.77;823.47;;;6.80;99.90;;;;;;4980528;28;20894;-83
2022/10/07 06:47:13;;;;;;;897.17;821.57;;;6.80;99.90;;;;;;4980241;28;20983;-83
2022/10/07 06:49:40;;;;;;;901.70;827.20;;;6.80;99.90;;;;;;4977754;28;20490;-84
2022/10/07 06:52:07;;;;;;;900.07;825.17;;;7.00;99.90;;;;;;4979763;28;21024;-84
2022/10/07 06:54:33;;;;;;;904.13;830.63;;;7.10;99.90;;;;;;4978974;28;20455;-83
2022/10/07 06:57:00;;;;;;;900.80;827.73;;;7.10;99.90;;;;;;4980101;28;20490;-83
2022/10/07 06:59:28;;;;;;;895.13;822.33;;;7.20;99.90;;;;;;4979872;28;20483;-82
2022/10/07 07:01:55;;;;;;;911.07;838.57;;;7.30;99.90;;;;;;4979956;28;20451;-84
2022/10/07 07:04:23;;;;;;;903.07;831.37;;;7.40;99.90;;;;;;4977338;28;20846;-82
2022/10/07 07:06:50;;;;;;;908.30;836.40;;;7.40;99.90;;;;;;4977477;28;20919;-84
2022/10/07 07:09:17;;;;;;;908.73;839.30;;;7.50;99.90;;;;;;4978655;28;20972;-83
2022/10/07 07:11:44;;;;;;;908.67;840.93;;;7.50;99.90;;;;;;4977930;28;20910;-83
2022/10/07 07:14:12;;;;;;;912.13;846.57;;;7.70;99.90;;;;;;4978282;28;20466;-84
2022/10/07 07:16:41;;;;;;;903.80;841.20;;;7.80;99.90;;;;;;4976844;28;20482;-83
2022/10/07 07:19:10;;;;;;;912.50;850.50;;;7.90;99.90;;;;;;4977950;28;21022;-83
2022/10/07 07:21:39;;;;;;;905.50;844.23;;;8.00;99.90;;;;;;4983497;28;20450;-85
2022/10/07 07:24:06;;;;;;;907.00;846.20;;;8.00;99.90;;;;;;4985782;28;20455;-84
2022/10/07 07:26:34;;;;;;;902.50;843.77;;;8.10;99.90;;;;;;4980855;28;20538;-83
2022/10/07 07:29:02;;;;;;;888.63;832.40;;;8.20;99.90;;;;;;4978393;28;20799;-83
2022/10/07 07:31:30;;;;;;;881.40;827.80;;;8.30;99.90;;;;;;4977470;28;20553;-83
2022/10/07 07:34:00;;;;;;;873.17;821.80;;;8.40;99.90;;;;;;4977431;28;20466;-83
2022/10/07 07:36:29;;;;;;;851.93;803.20;;;8.50;99.90;;;;;;4976931;28;20949;-82
2022/10/07 07:38:58;;;;;;;832.50;784.80;;;8.60;99.90;;;;;;4978220;28;20952;-83
2022/10/07 07:41:27;;;;;;;814.27;769.30;;;8.70;99.90;;;;;;4977891;28;20454;-83
2022/10/07 07:43:56;;;;;;;778.53;737.03;;;8.80;99.90;;;;;;4978233;28;20530;-84
2022/10/07 07:46:26;;;;;;;736.83;700.53;;;8.90;99.90;;;;;;4978016;28;20469;-83
2022/10/07 07:48:53;;;;;;;674.07;641.23;;;9.10;99.90;;;;;;4978590;28;20471;-83
2022/10/07 07:51:21;;;;;;;626.17;598.27;;;9.20;99.90;;;;;;4978503;28;20483;-83
2022/10/07 07:53:49;;;;;;;604.30;577.93;;;9.30;99.90;;;;;;4977587;28;20455;-83
2022/10/07 07:56:17;;;;;;;579.50;554.90;;;9.50;99.90;;;;;;4977418;28;20494;-83
2022/10/07 07:58:44;;;;;;;535.50;513.40;;;9.50;99.90;;;;;;4978281;28;20486;-83
2022/10/07 08:01:13;;;;;;;452.13;433.53;;;9.70;99.90;;;;;;4978260;28;20454;-83
2022/10/07 08:03:41;;;;;;;428.07;411.47;;;9.70;99.90;;;;;;4978477;28;20455;-83
2022/10/07 08:06:10;;;;;;;408.63;393.53;;;9.80;99.90;;;;;;4977848;28;20467;-83
2022/10/07 08:08:39;;;;;;;338.53;326.53;;;10.00;99.90;;;;;;4978147;28;20479;-84
2022/10/07 08:11:07;;;;;;;366.07;353.43;;;10.00;99.90;;;;;;4978157;28;21017;-84
2022/10/07 08:13:34;;;;;;;341.17;329.47;;;10.10;99.90;;;;;;4978110;28;20462;-84
2022/10/07 08:16:03;;;;;;;330.00;318.73;;;10.40;99.90;;;;;;4977851;28;20458;-84
2022/10/07 08:18:30;;;;;;;306.87;296.63;;;10.50;99.90;;;;;;4978141;28;20475;-84
2022/10/07 08:20:58;;;;;;;336.10;323.77;;;10.50;99.90;;;;;;4978405;28;20474;-84
2022/10/07 08:23:25;;;;;;;218.07;210.63;;;10.80;99.90;;;;;;4978045;28;20454;-84
2022/10/07 08:25:55;;;;;;;142.70;136.83;;;10.80;99.90;;;;;;4977625;28;20486;-84
2022/10/07 08:28:23;;;;;;;128.67;123.23;;;10.90;99.90;;;;;;4979685;28;20565;-83
2022/10/07 08:30:50;;;;;;;121.53;116.87;;;11.00;99.90;;;;;;4981782;28;20459;-84
2022/10/07 08:33:18;;;;;;;68.23;64.77;;;11.10;99.90;;;;;;4982072;28;20465;-84
2022/10/07 08:35:49;;;;;;;57.17;54.70;;;11.20;99.90;;;;;;4980824;28;20469;-84
2022/10/07 08:38:16;;;;;;;45.23;41.53;;;11.40;99.90;;;;;;4982303;28;20474;-84
2022/10/07 08:40:47;;;;;;;56.00;52.83;;;11.60;99.90;;;;;;4980670;28;20558;-84
2022/10/07 08:43:15;;;;;;;15.07;9.60;;;11.90;99.90;;;;;;4981134;28;20980;-84
2022/10/07 08:45:42;;;;;;;12.27;4.30;;;12.20;99.90;;;;;;4979854;28;20883;-84
2022/10/07 08:48:14;;;;;;;17.60;3.70;;;12.60;99.90;;;;;;4980225;28;20848;-85
2022/10/07 08:50:51;;;;;;;10.37;3.10;;;13.00;99.90;;;;;;4980670;28;20509;-84
2022/10/07 08:53:22;;;;;;;12.43;3.77;;;13.30;99.90;;;;;;4981341;28;20458;-84
2022/10/07 08:55:53;;;;;;;6.03;2.93;;;13.60;99.10;;;;;;4981099;28;20451;-82
2022/10/07 08:58:39;;;;;;;14.80;2.60;;;14.00;96.50;;;;;;4981270;28;20476;-84
2022/10/07 09:01:18;;;;;;;12.40;3.60;;;14.30;94.50;;;;;;4981009;28;20452;-84
2022/10/07 09:03:51;;;;;;;11.63;2.90;;;14.70;91.90;;;;;;4980327;28;20839;-84
2022/10/07 09:06:26;;;;;;;8.33;2.50;;;15.00;90.70;;;;;;4980403;28;20464;-85
2022/10/07 09:08:59;;;;;;;11.73;4.17;;;15.30;89.00;;;;;;4980206;28;20481;-84
2022/10/07 09:11:27;;;;;;;11.97;2.97;;;15.40;85.50;;;;;;4981581;28;20487;-84
2022/10/07 09:14:01;;;;;;;15.57;3.13;;;15.70;82.10;;;;;;4980626;28;20466;-85
2022/10/07 09:16:32;;;;;;;9.73;2.00;;;16.00;81.60;;;;;;4980737;28;20461;-85
2022/10/07 09:19:02;;;;;;;12.53;2.60;;;16.20;80.10;;;;;;4980424;28;20490;-85
2022/10/07 09:21:36;;;;;;;8.53;2.40;;;16.50;79.60;;;;;;4980293;28;20458;-85
2022/10/07 09:24:16;;;;;;;10.30;2.53;;;16.90;76.60;;;;;;4980159;28;20453;-84
2022/10/07 09:26:43;;;;;;;12.57;1.93;;;17.20;73.30;;;;;;4980759;28;20459;-85
2022/10/07 09:29:11;;;;;;;12.97;2.43;;;17.30;70.20;;;;;;4980450;28;20481;-84
2022/10/07 09:31:38;;;;;;;11.03;2.30;;;17.50;71.00;;;;;;4980166;28;20487;-82
2022/10/07 09:34:05;;;;;;;9.60;2.50;;;17.80;68.10;;;;;;4980226;28;20460;-83
2022/10/07 09:36:32;;;;;;;12.60;1.97;;;18.00;66.00;;;;;;4980651;28;20530;-82
2022/10/07 09:39:16;;;;;;;10.57;2.17;;;18.40;65.90;;;;;;4979747;28;20488;-83
2022/10/07 09:41:43;;;;;;;8.23;2.07;;;18.50;64.10;;;;;;4980607;28;20452;-82
2022/10/07 09:44:25;;;;;;;13.00;2.70;;;18.60;61.30;;;;;;4980726;28;20468;-82
2022/10/07 09:46:55;;;;;;;9.60;2.20;;;18.70;60.70;;;;;;4980285;28;20458;-82
2022/10/07 09:49:39;;;;;;;13.63;5.07;;;19.00;60.90;;;;;;4980235;28;20513;-82
2022/10/07 09:52:16;;;;;;;10.03;2.60;;;19.40;58.60;;;;;;4980673;28;20480;-83
2022/10/07 09:54:45;;;;;;;14.50;2.40;;;19.40;55.40;;;;;;4979332;28;20459;-82
2022/10/07 09:57:25;;;;;;;11.60;3.30;;;19.60;52.80;;;;;;4980868;28;20459;-82
2022/10/07 10:00:30;;;;;;;14.40;2.60;;;19.70;52.90;;;;;;4980850;28;20476;-82
2022/10/07 10:03:04;;;;;;;11.23;1.90;;;20.40;51.60;;;;;;4982177;28;20453;-82
2022/10/07 10:05:33;;;;;;;8.57;2.10;;;20.40;49.70;;;;;;4979880;28;20957;-83
2022/10/07 10:08:03;;;;;;;7.73;2.50;;;20.50;49.80;;;;;;4980046;28;20947;-83
2022/10/07 10:10:32;;;;;;;11.30;3.13;;;20.50;47.70;;;;;;4980229;28;20465;-83
2022/10/07 10:13:01;;;;;;;14.13;2.47;;;20.40;47.90;;;;;;4980569;28;20482;-82
2022/10/07 10:15:39;;;;;;;11.80;3.70;;;20.70;47.60;;;;;;4980113;28;20454;-83
2022/10/07 10:18:36;;;;;;;10.57;2.57;;;20.60;47.60;;;;;;4980418;28;20458;-83
2022/10/07 10:21:20;;;;;;;15.47;4.13;;;20.80;43.10;;;;;;4980536;28;20978;-83
2022/10/07 10:23:48;;;;;;;8.30;2.60;;;21.00;42.60;;;;;;4979990;28;20457;-83
2022/10/07 10:26:28;;;;;;;17.10;2.70;;;20.80;40.10;;;;;;4980078;28;20833;-84
2022/10/07 10:29:05;;;;;;;16.10;2.67;;;21.20;42.40;;;;;;4980124;28;20492;-83
2022/10/07 10:31:46;;;;;;;16.10;3.17;;;21.70;40.90;;;;;;4979442;28;21026;-83
2022/10/07 10:34:28;;;;;;;10.87;2.40;;;22.10;38.80;;;;;;4979918;28;20473;-83
2022/10/07 10:37:04;;;;;;;9.60;2.70;;;22.70;36.30;;;;;;4979746;28;20462;-83
2022/10/07 10:39:44;;;;;;;10.20;3.03;;;23.30;33.80;;;;;;4979788;28;20855;-83
2022/10/07 10:42:14;;;;;;;15.03;2.20;;;23.40;26.80;;;;;;4979757;28;20451;-84
2022/10/07 10:44:51;;;;;;;19.67;3.17;;;23.60;29.60;;;;;;4979582;28;20463;-83
2022/10/07 10:47:24;;;;;;;11.70;4.00;;;23.70;26.50;;;;;;4980206;28;20485;-83
2022/10/07 10:50:04;;;;;;;14.77;3.07;;;23.90;26.50;;;;;;4977045;28;20487;-88
2022/10/07 10:52:44;;;;;;;11.40;3.00;;;24.40;24.60;;;;;;4978273;28;20478;-86
2022/10/07 10:55:25;;;;;;;12.53;2.80;;;24.30;22.20;;;;;;4981914;28;20457;-84
2022/10/07 10:58:01;;;;;;;9.57;2.30;;;23.70;21.30;;;;;;4980425;28;20509;-84
2022/10/07 11:00:37;;;;;;;12.30;2.00;;;23.50;20.00;;;;;;4979994;28;20846;-83
2022/10/07 11:03:24;;;;;;;11.37;3.10;;;23.20;22.20;;;;;;4980047;28;20447;-84
2022/10/07 11:05:54;;;;;;;11.40;2.40;;;23.10;19.60;;;;;;4979414;28;20991;-84
2022/10/07 11:08:25;;;;;;;10.93;3.60;;;22.40;21.00;;;;;;4979284;28;20482;-84
2022/10/07 11:10:55;;;;;;;11.90;2.13;;;22.90;21.80;;;;;;4980587;28;20459;-84
2022/10/07 11:13:30;;;;;;;16.70;2.73;;;21.90;19.80;;;;;;4980771;28;20478;-84
2022/10/07 11:16:01;;;;;;;9.73;2.50;;;22.20;21.30;;;;;;4980295;28;20517;-82
2022/10/07 11:18:36;;;;;;;12.20;2.67;;;21.80;22.70;;;;;;4981841;28;20482;-83
2022/10/07 11:21:09;;;;;;;9.10;1.73;;;22.30;21.40;;;;;;4984054;28;20491;-85
2022/10/07 11:23:45;;;;;;;12.73;2.50;;;22.60;21.60;;;;;;4977869;28;20459;-86
2022/10/07 11:26:19;;;;;;;11.37;2.17;;;23.30;18.20;;;;;;4977261;28;20842;-86
2022/10/07 11:28:49;;;;;;;19.47;2.97;;;23.20;17.90;;;;;;4978744;28;20860;-85
2022/10/07 11:31:23;;;;;;;11.77;2.50;;;23.40;17.80;;;;;;4977816;28;20839;-85
2022/10/07 11:34:00;;;;;;;15.07;3.43;;;23.30;16.30;;;;;;4979173;28;21041;-84
2022/10/07 11:36:39;;;;;;;8.17;2.23;;;23.00;18.40;;;;;;4984888;28;20486;-86
2022/10/07 11:39:07;;;;;;;17.00;2.70;;;21.90;21.10;;;;;;4983849;28;20540;-86
2022/10/07 11:41:39;;;;;;;9.73;2.30;;;21.70;21.00;;;;;;4982725;28;20451;-86
2022/10/07 11:44:13;;;;;;;8.97;2.10;;;22.10;21.20;;;;;;4980065;28;20458;-85
2022/10/07 11:46:43;;;;;;;11.63;2.13;;;22.30;20.10;;;;;;4983003;28;20466;-85
2022/10/07 11:49:19;;;;;;;11.33;2.53;;;22.20;21.00;;;;;;4979156;28;20479;-85
2022/10/07 11:51:53;;;;;;;12.73;2.50;;;22.40;19.90;;;;;;4978750;28;20462;-84
2022/10/07 11:54:23;;;;;;;14.77;2.47;;;23.00;17.30;;;;;;4978622;28;20898;-85
2022/10/07 11:56:52;;;;;;;10.63;2.30;;;23.20;15.70;;;;;;4978763;28;20466;-86
2022/10/07 11:59:32;;;;;;;10.27;2.27;;;23.20;14.50;;;;;;4978104;28;20466;-86
2022/10/07 12:01:59;;;;;;;9.00;1.90;;;23.30;16.10;;;;;;4983131;28;20525;-83
2022/10/07 12:04:44;;;;;;;16.63;3.40;;;23.30;13.50;;;;;;4980891;28;20461;-85
2022/10/07 12:07:40;;;;;;;13.10;2.83;;;23.70;13.30;;;;;;4979173;28;20457;-84
2022/10/07 12:10:29;;;;;;;11.27;2.40;;;23.80;10.30;;;;;;4982376;28;20489;-84
2022/10/07 12:12:59;;;;;;;14.10;3.07;;;24.40;11.60;;;;;;4983395;28;20470;-84
2022/10/07 12:15:32;;;;;;;13.03;2.27;;;24.30;10.40;;;;;;4985382;28;20451;-84
2022/10/07 12:18:27;;;;;;;9.70;2.00;;;24.20;14.00;;;;;;4980672;28;20463;-87
2022/10/07 12:21:05;;;;;;;15.53;2.73;;;24.10;12.80;;;;;;4978470;28;20458;-86
2022/10/07 12:24:09;;;;;;;13.93;2.97;;;24.30;9.30;;;;;;4977425;28;20466;-83
2022/10/07 12:26:46;;;;;;;14.00;2.53;;;24.30;12.10;;;;;;4977064;28;20451;-85
2022/10/07 12:29:25;;;;;;;12.57;2.50;;;24.90;8.70;;;;;;4982330;28;20479;-86
2022/10/07 12:31:52;;;;;;;9.90;2.40;;;24.60;7.80;;;;;;4982728;28;20439;-86
2022/10/07 12:34:29;;;;;;;9.10;2.50;;;24.70;8.00;;;;;;4981623;28;20522;-85
2022/10/07 12:37:49;;;;;;;16.13;2.13;;;24.30;8.70;;;;;;4983365;28;20461;-86
2022/10/07 12:40:24;;;;;;;9.10;2.20;;;24.30;10.30;;;;;;4989266;28;20443;-86
2022/10/07 12:42:56;;;;;;;10.00;2.40;;;24.90;8.10;;;;;;4992257;28;20522;-85
2022/10/07 12:45:26;;;;;;;8.03;2.23;;;24.20;7.10;;;;;;4990200;28;20459;-85
2022/10/07 12:47:56;;;;;;;8.87;2.27;;;24.10;7.50;;;;;;4985461;28;20457;-85